Airfield :
LOGIN :

Register | Disclaimer

   EN    FR    IT 

 










Legend :    VFR   Marginal VFR   IFR   Intensive IFR   Very Intensive IFR
Visi :
Ceiling :
>= 8 km
>= 3000ft
5 to 8 km
1000 to 3000 ft
1500m to 5 km
500 to 1000 ft
800 to 1500m
200 to 500 ft
< 800m
< 200 ft
Symbols :   Thunderstorms  Fog  Heavy snow  Heavy precipitations  Wind > 20 kt
SIGMETs :     Misc.  Thunderstorms  Icing  Turbulence  Mountain Waves  Volcanic Ashes






- Airport Elevation : 375 ft
- IATA code : MST


EHBK - Maastricht Aachen

CURRENT METAR :
  • 261025Z AUTO 25009KT 210V290 9999 BKN002 OVC003 01/01 Q1000 BECMG BKN016

EXPIRED METARs :
  • 260955Z AUTO 25008KT 200V290 8000 -SN BKN002 OVC003 01/00 Q0999 BECMG 9999 NSW BKN016
  • 260925Z AUTO 25009KT 210V310 5000 -SNRA BKN003 BKN004 OVC005 01/01 Q0999 TEMPO 3000 SNRA
  • 260855Z AUTO 25009KT 210V310 9999 BKN003 OVC004 01/01 Q0998 BECMG SCT025
  • 260825Z AUTO 25010KT 200V300 9999 SCT003 BKN004 OVC005 01/01 Q0997 BECMG SCT025
  • 260755Z AUTO 25010KT 210V290 9999 -RA BKN003 OVC004 01/01 Q0997 BECMG SCT025

TAF AMD TAF EHBK
Valid from the 26 at 09:00 until the 27 at 12:00 UTC


260927Z 2609/2712 24015G25KT 9999 BKN003
TEMPO 2609/2702 6000 -SHRAGS SCT025CB
PROB40
TEMPO 2609/2702 25018G30KT 2500 SHRAGS TSRAGSSN BKN008 SCT015CB
BECMG 2610/2611 BKN025
BECMG 2610/2613 27013KT
BECMG 2618/2621 22008KT
BECMG 2703/2706 19010KT
BECMG 2709/2712 12010KT 6000 RA
PROB30
TEMPO 2710/2712 3000 RASN BKN008



MET'MAP, your aeronautical weather chart ! - Copyright ORBIFLY December 2007 - Disclaimer

ORBIFLY MET'MAP TEAM :

Programming & Development : Alexandra Zaïnal
Concept & original design : Baudouin d'Aumeries
Assistance for programming : Marc-Olivier Méhu
Technical & hardware support : Manuel Goepfert

Contact : metmap@orbifly.com




SOURCES & CREDITS :

   NOAA